Terminal Aerodrome Forecast
Issued by NWS

Home | Current Version | Previous Version | Text Only | Print | Product List | Glossary On
Versions: 1 2 3 4 5 6 7 8 9 10 11 12 13
000
FTUS41 KLWX 301700
TAFMTN
TAF
KMTN 301734Z 3018/3118 16009KT P6SM BKN035
     FM301900 16010KT P6SM BKN040
     FM302100 17010KT P6SM SCT100
     FM310600 18007KT P6SM BKN090
     FM311200 20007KT 5SM BR BKN090
     FM311300 20008KT 3SM BR BKN090=

USA.gov is the U.S. government's official web portal to all federal, state and local government web resources and services.